TimeCST,TemperatureF,Dew PointF,Humidity,Sea Level PressureIn,VisibilityMPH,Wind Direction,Wind SpeedMPH,Gust SpeedMPH,PrecipitationIn,Events,Conditions,WindDirDegrees,DateUTC
12:52 AM,57.0,48.0,72,30.17,10.0,South,10.4,-,N/A,,Partly Cloudy,190,2012-12-02 06:52:00
1:52 AM,60.1,48.9,67,30.16,10.0,South,11.5,-,N/A,,Overcast,180,2012-12-02 07:52:00
2:52 AM,60.1,48.9,67,30.17,10.0,South,11.5,-,N/A,,Overcast,180,2012-12-02 08:52:00
3:52 AM,61.0,50.0,67,30.15,10.0,SSW,18.4,-,N/A,,Mostly Cloudy,200,2012-12-02 09:52:00
4:52 AM,61.0,51.1,70,30.15,10.0,South,12.7,20.7,N/A,,Overcast,190,2012-12-02 10:52:00
5:52 AM,61.0,51.1,70,30.15,10.0,South,11.5,20.7,N/A,,Mostly Cloudy,190,2012-12-02 11:52:00
6:52 AM,62.1,51.1,67,30.16,10.0,South,17.3,-,N/A,,Overcast,190,2012-12-02 12:52:00
7:52 AM,62.1,51.1,67,30.17,10.0,SSW,13.8,-,N/A,,Partly Cloudy,200,2012-12-02 13:52:00
8:48 AM,64.4,53.6,68,30.19,10.0,SSW,15.0,23.0,N/A,,Mostly Cloudy,210,2012-12-02 14:48:00
8:52 AM,64.0,53.1,67,30.18,10.0,SSW,18.4,23.0,N/A,,Mostly Cloudy,210,2012-12-02 14:52:00
9:02 AM,66.2,53.6,64,30.19,10.0,SSW,21.9,27.6,N/A,,Mostly Cloudy,210,2012-12-02 15:02:00
9:52 AM,66.9,55.9,68,30.18,10.0,SSW,20.7,29.9,N/A,,Mostly Cloudy,210,2012-12-02 15:52:00
10:26 AM,66.2,55.4,68,30.19,10.0,SW,23.0,31.1,N/A,,Overcast,220,2012-12-02 16:26:00
10:52 AM,66.0,57.0,73,30.18,10.0,SSW,18.4,28.8,N/A,,Overcast,210,2012-12-02 16:52:00
11:52 AM,66.0,57.0,73,30.16,10.0,SW,13.8,21.9,N/A,,Overcast,220,2012-12-02 17:52:00
12:52 PM,66.9,57.0,70,30.14,10.0,SSW,13.8,23.0,N/A,,Overcast,210,2012-12-02 18:52:00
1:52 PM,66.9,57.0,70,30.12,10.0,SW,12.7,-,N/A,,Overcast,220,2012-12-02 19:52:00
2:52 PM,66.0,57.0,73,30.12,10.0,SSW,13.8,-,N/A,,Overcast,210,2012-12-02 20:52:00
3:52 PM,66.9,57.0,70,30.12,10.0,SSW,11.5,-,N/A,,Overcast,200,2012-12-02 21:52:00
4:52 PM,66.0,57.0,73,30.13,10.0,SSW,11.5,-,N/A,,Overcast,200,2012-12-02 22:52:00
5:52 PM,66.0,57.0,73,30.14,10.0,South,6.9,-,N/A,,Overcast,190,2012-12-02 23:52:00
6:52 PM,64.9,59.0,81,30.15,10.0,SSW,6.9,-,N/A,,Overcast,210,2012-12-03 00:52:00
7:10 PM,64.4,59.0,83,30.16,10.0,SSW,6.9,-,N/A,,Overcast,200,2012-12-03 01:10:00
7:52 PM,63.0,57.9,84,30.15,10.0,South,4.6,-,N/A,,Overcast,170,2012-12-03 01:52:00
8:52 PM,64.0,55.9,75,30.15,10.0,South,8.1,-,N/A,,Mostly Cloudy,180,2012-12-03 02:52:00
9:52 PM,64.0,55.9,75,30.16,10.0,South,6.9,-,N/A,,Overcast,180,2012-12-03 03:52:00
10:52 PM,64.0,55.9,75,30.16,10.0,South,9.2,-,N/A,,Overcast,180,2012-12-03 04:52:00
11:52 PM,64.0,55.0,73,30.16,10.0,South,9.2,-,N/A,,Mostly Cloudy,180,2012-12-03 05:52:00